createdAt,value
2022-09-02T00:00:20.891Z,64.60
2022-09-02T00:03:07.140Z,64.22
2022-09-02T00:05:52.300Z,64.33
2022-09-02T00:08:38.660Z,64.43
2022-09-02T00:11:27.582Z,64.74
2022-09-02T00:14:18.210Z,64.72
2022-09-02T00:17:04.802Z,65.06
2022-09-02T00:19:55.546Z,64.51
2022-09-02T00:22:41.650Z,64.55
2022-09-02T00:25:27.336Z,64.66
2022-09-02T00:28:14.589Z,64.60
2022-09-02T00:31:01.727Z,64.76
2022-09-02T00:33:47.374Z,64.40
2022-09-02T00:36:33.595Z,65.19
2022-09-02T00:39:19.479Z,65.30
2022-09-02T00:42:05.830Z,65.54
2022-09-02T00:44:52.170Z,66.05
2022-09-02T00:47:38.367Z,66.42
2022-09-02T00:50:29.828Z,66.74
2022-09-02T00:53:15.494Z,66.94
2022-09-02T00:56:02.451Z,67.22
2022-09-02T00:58:50.462Z,67.18
2022-09-02T01:01:36.194Z,67.15
2022-09-02T01:04:21.928Z,67.31
2022-09-02T01:07:07.383Z,67.06
2022-09-02T01:09:55.618Z,66.70
2022-09-02T01:12:41.310Z,66.60
2022-09-02T01:15:30.267Z,66.92
2022-09-02T01:18:20.344Z,67.35
2022-09-02T01:21:06.834Z,67.65
2022-09-02T01:23:53.080Z,67.85
2022-09-02T01:26:38.581Z,67.89
2022-09-02T01:29:25.125Z,68.01
2022-09-02T01:32:12.115Z,68.18
2022-09-02T01:34:57.973Z,68.29
2022-09-02T01:37:54.838Z,68.07
2022-09-02T01:40:41.791Z,67.88
2022-09-02T01:43:29.875Z,67.95
2022-09-02T01:46:15.721Z,68.02
2022-09-02T01:49:01.540Z,68.01
2022-09-02T01:51:47.116Z,68.00
2022-09-02T01:54:32.728Z,68.06
2022-09-02T01:57:18.636Z,68.41
2022-09-02T02:00:07.254Z,68.47
2022-09-02T02:02:58.070Z,68.45
2022-09-02T02:05:44.939Z,69.17
2022-09-02T02:08:33.884Z,69.67
2022-09-02T02:11:24.025Z,69.70
2022-09-02T02:14:14.895Z,70.03
2022-09-02T02:17:05.798Z,70.57
2022-09-02T02:19:51.228Z,70.47
2022-09-02T02:22:37.217Z,70.75
2022-09-02T02:25:22.956Z,71.32
2022-09-02T02:28:11.561Z,71.43
2022-09-02T02:30:58.278Z,71.36
2022-09-02T02:33:44.094Z,72.26
2022-09-02T02:36:30.572Z,72.43
2022-09-02T02:39:17.105Z,72.67
2022-09-02T02:42:02.378Z,73.18
2022-09-02T02:44:47.703Z,73.12
2022-09-02T02:47:33.597Z,73.34
2022-09-02T02:50:21.749Z,73.15
2022-09-02T02:53:08.893Z,72.89
2022-09-02T02:55:59.656Z,72.83
2022-09-02T02:58:45.515Z,72.57
2022-09-02T03:01:32.774Z,72.63
2022-09-02T03:04:18.988Z,72.36
2022-09-02T03:07:07.233Z,72.34
2022-09-02T03:09:52.825Z,72.28
2022-09-02T03:12:39.728Z,72.08
2022-09-02T03:15:26.488Z,71.71
2022-09-02T03:18:12.733Z,71.04
2022-09-02T03:20:58.447Z,71.12
2022-09-02T03:23:45.339Z,71.10
2022-09-02T03:26:31.362Z,71.04
2022-09-02T03:29:17.201Z,70.91
2022-09-02T03:32:04.028Z,70.82
2022-09-02T03:34:50.386Z,70.60
2022-09-02T03:37:37.191Z,70.01
2022-09-02T03:40:26.015Z,69.53
2022-09-02T03:43:13.165Z,69.29
2022-09-02T03:45:59.685Z,68.76
2022-09-02T03:48:45.498Z,68.51
2022-09-02T03:51:33.199Z,69.07
2022-09-02T03:54:18.692Z,69.09
2022-09-02T03:57:04.926Z,69.12
2022-09-02T03:59:51.851Z,69.27
2022-09-02T04:02:37.776Z,68.97
2022-09-02T04:05:24.825Z,69.30
2022-09-02T04:08:14.232Z,69.38
2022-09-02T04:10:59.593Z,70.00
2022-09-02T04:13:47.074Z,70.34
2022-09-02T04:16:36.103Z,70.02
2022-09-02T04:19:25.085Z,70.31
2022-09-02T04:22:10.514Z,70.17
2022-09-02T04:24:57.194Z,70.34
2022-09-02T04:27:42.590Z,70.56
2022-09-02T04:30:28.388Z,70.64
2022-09-02T04:33:13.943Z,70.58
2022-09-02T04:36:00.395Z,70.17
2022-09-02T04:38:47.787Z,70.13
2022-09-02T04:41:35.794Z,70.23
2022-09-02T04:44:25.640Z,70.32
2022-09-02T04:47:11.634Z,70.28
2022-09-02T04:49:58.534Z,70.57
2022-09-02T04:52:44.186Z,69.40
2022-09-02T04:55:29.576Z,68.81
2022-09-02T04:58:16.776Z,68.05
2022-09-02T05:01:10.949Z,67.65
2022-09-02T05:03:56.602Z,66.69
2022-09-02T05:06:47.065Z,66.21
2022-09-02T05:09:37.306Z,66.08
2022-09-02T05:12:27.384Z,66.06
2022-09-02T05:15:16.950Z,66.17
2022-09-02T05:18:03.814Z,66.32
2022-09-02T05:20:51.532Z,65.04
2022-09-02T05:23:37.387Z,64.60
2022-09-02T05:26:24.223Z,63.49
2022-09-02T05:29:11.861Z,63.66
2022-09-02T05:31:59.296Z,63.42
2022-09-02T05:34:45.091Z,63.05
2022-09-02T05:37:31.052Z,63.52
2022-09-02T05:40:22.492Z,64.47
2022-09-02T05:43:08.871Z,64.29
2022-09-02T05:45:55.776Z,64.10
2022-09-02T05:49:00.393Z,63.14
2022-09-02T05:51:45.829Z,61.36
2022-09-02T05:54:37.067Z,59.83
2022-09-02T05:57:26.956Z,59.74
2022-09-02T06:00:18.267Z,59.97
2022-09-02T06:03:18.440Z,59.70
2022-09-02T06:06:06.717Z,58.86
2022-09-02T06:08:55.569Z,60.59
2022-09-02T06:11:49.334Z,60.23
2022-09-02T06:14:38.865Z,59.64
2022-09-02T06:17:25.792Z,59.85
2022-09-02T06:20:12.147Z,59.44
2022-09-02T06:22:59.903Z,59.47
2022-09-02T06:25:47.739Z,59.82
2022-09-02T06:28:33.715Z,60.26
2022-09-02T06:31:22.424Z,60.05
2022-09-02T06:34:09.195Z,60.02
2022-09-02T06:36:55.033Z,59.43
2022-09-02T06:39:44.869Z,59.15
2022-09-02T06:42:35.755Z,59.01
2022-09-02T06:45:28.894Z,58.83
2022-09-02T06:48:17.332Z,58.78
2022-09-02T06:51:03.818Z,60.57
2022-09-02T06:53:51.870Z,60.18
2022-09-02T06:56:39.909Z,58.12
2022-09-02T06:59:26.917Z,57.81
2022-09-02T07:05:10.064Z,57.28
2022-09-02T07:07:56.420Z,57.06
2022-09-02T07:10:42.267Z,57.11
2022-09-02T07:13:28.430Z,56.36
2022-09-02T07:16:20.450Z,55.78
2022-09-02T07:19:19.945Z,55.17
2022-09-02T07:22:07.262Z,55.95
2022-09-02T07:24:58.178Z,54.95
2022-09-02T07:27:50.337Z,53.54
2022-09-02T07:30:37.178Z,54.22
2022-09-02T07:33:28.215Z,54.36
2022-09-02T07:36:15.625Z,54.65
2022-09-02T07:39:01.787Z,54.17
2022-09-02T07:41:50.290Z,54.17
2022-09-02T07:44:37.930Z,53.97
2022-09-02T07:47:25.540Z,53.81
2022-09-02T07:50:17.058Z,54.35
2022-09-02T07:53:08.391Z,54.42
2022-09-02T07:55:55.431Z,52.85
2022-09-02T07:58:43.151Z,53.83
2022-09-02T08:01:29.737Z,52.11
2022-09-02T08:04:16.686Z,52.27
2022-09-02T08:07:01.961Z,51.78
2022-09-02T08:09:54.133Z,51.89
2022-09-02T08:12:41.492Z,50.66
2022-09-02T08:15:28.834Z,50.71
2022-09-02T08:18:22.267Z,51.17
2022-09-02T08:21:08.395Z,51.83
2022-09-02T08:23:54.296Z,49.21
2022-09-02T08:26:39.817Z,49.05
2022-09-02T08:29:25.149Z,49.23
2022-09-02T08:32:10.766Z,49.69
2022-09-02T08:34:56.686Z,49.07
2022-09-02T08:37:42.315Z,48.99
2022-09-02T08:40:40.942Z,49.13
2022-09-02T08:43:44.153Z,48.92
2022-09-02T08:46:32.896Z,49.55
2022-09-02T08:49:26.112Z,49.49
2022-09-02T08:52:20.074Z,50.05
2022-09-02T08:55:07.686Z,49.41
2022-09-02T08:57:56.574Z,48.99
2022-09-02T09:00:46.185Z,48.48
2022-09-02T09:03:51.631Z,48.51
2022-09-02T09:06:46.637Z,46.59
2022-09-02T09:09:44.651Z,47.37
2022-09-02T09:12:43.103Z,47.14
2022-09-02T09:15:49.544Z,47.63
2022-09-02T09:18:39.287Z,46.72
2022-09-02T09:24:36.842Z,47.45
2022-09-02T09:27:23.296Z,47.67
2022-09-02T09:30:15.025Z,47.26
2022-09-02T09:33:08.241Z,47.11
2022-09-02T09:35:55.452Z,47.70
2022-09-02T09:38:41.860Z,46.82
2022-09-02T09:41:29.124Z,47.91
2022-09-02T09:44:38.935Z,47.48
2022-09-02T09:47:26.065Z,46.31
2022-09-02T09:50:16.848Z,46.00
2022-09-02T09:53:23.280Z,45.96
2022-09-02T09:56:21.438Z,45.67
2022-09-02T09:59:09.496Z,46.24
2022-09-02T10:01:55.461Z,46.17
2022-09-02T10:04:43.637Z,45.84
2022-09-02T10:08:16.017Z,46.78
2022-09-02T10:11:06.457Z,45.54
2022-09-02T10:14:05.074Z,45.80
2022-09-02T10:16:57.014Z,46.16
2022-09-02T10:20:05.048Z,46.84
2022-09-02T10:23:11.754Z,47.53
2022-09-02T10:26:11.627Z,46.64
2022-09-02T10:29:23.454Z,46.44
2022-09-02T10:32:27.433Z,45.99
2022-09-02T10:35:19.339Z,46.47
2022-09-02T10:38:15.867Z,46.53
2022-09-02T10:41:14.596Z,46.48
2022-09-02T10:44:13.509Z,46.34
2022-09-02T10:47:04.990Z,46.69
2022-09-02T10:49:59.905Z,47.01
2022-09-02T10:53:09.513Z,47.07
2022-09-02T10:56:21.526Z,46.85
2022-09-02T10:59:40.581Z,47.13
2022-09-02T11:03:11.201Z,46.94
2022-09-02T11:06:14.626Z,46.65
2022-09-02T11:09:06.684Z,46.92
2022-09-02T11:12:04.401Z,47.27
2022-09-02T11:15:04.564Z,47.80
2022-09-02T11:18:19.830Z,48.21
2022-09-02T11:21:19.479Z,47.77
2022-09-02T11:24:29.546Z,48.28
2022-09-02T11:27:44.620Z,48.52
2022-09-02T11:30:47.544Z,48.29
2022-09-02T11:33:52.401Z,48.82
2022-09-02T11:36:39.922Z,48.30
2022-09-02T11:39:54.459Z,48.54
2022-09-02T11:43:15.368Z,49.13
2022-09-02T11:46:25.936Z,49.42
2022-09-02T11:49:29.606Z,49.39
2022-09-02T11:52:53.885Z,48.96
2022-09-02T11:55:57.299Z,49.55
2022-09-02T11:58:45.675Z,50.09
2022-09-02T12:01:43.969Z,50.56
2022-09-02T12:07:48.593Z,50.07
2022-09-02T12:11:00.577Z,50.11
2022-09-02T12:17:02.734Z,50.75
2022-09-02T12:19:50.665Z,50.75
2022-09-02T12:22:39.350Z,50.21
2022-09-02T12:25:27.006Z,49.99
2022-09-02T12:28:26.155Z,50.21
2022-09-02T12:31:40.760Z,49.95
2022-09-02T12:34:34.387Z,49.75
2022-09-02T12:37:58.103Z,50.30
2022-09-02T12:41:07.911Z,50.93
2022-09-02T12:44:23.759Z,51.18
2022-09-02T12:47:35.560Z,50.17
2022-09-02T12:50:55.361Z,49.82
2022-09-02T12:53:41.276Z,49.77
2022-09-02T12:56:27.332Z,49.73
2022-09-02T12:59:27.393Z,50.01
2022-09-02T13:02:31.642Z,49.32
2022-09-02T13:05:49.761Z,49.73
2022-09-02T13:08:41.124Z,49.86
2022-09-02T13:11:41.982Z,48.79
2022-09-02T13:14:42.611Z,48.90
2022-09-02T13:17:48.884Z,49.01
2022-09-02T13:20:43.624Z,49.53
2022-09-02T13:23:47.398Z,49.60
2022-09-02T13:27:06.107Z,49.39
2022-09-02T13:30:08.006Z,49.28
2022-09-02T13:33:06.507Z,48.75
2022-09-02T13:35:59.512Z,48.76
2022-09-02T13:38:44.825Z,48.59
2022-09-02T13:41:32.813Z,48.72
2022-09-02T13:44:24.588Z,49.13
2022-09-02T13:47:16.326Z,49.77
2022-09-02T13:50:02.029Z,49.64
2022-09-02T13:53:45.892Z,49.36
2022-09-02T13:56:00.247Z,49.58
2022-09-02T13:58:56.698Z,49.92
2022-09-02T14:01:42.222Z,49.91
2022-09-02T14:04:29.285Z,50.25
2022-09-02T14:07:15.833Z,50.52
2022-09-02T14:10:06.077Z,50.45
2022-09-02T14:12:52.138Z,50.55
2022-09-02T14:15:37.856Z,51.06
2022-09-02T14:18:25.014Z,51.15
2022-09-02T14:21:18.276Z,50.81
2022-09-02T14:24:04.820Z,51.17
2022-09-02T14:26:53.076Z,51.11
2022-09-02T14:29:44.749Z,51.56
2022-09-02T14:32:30.229Z,51.61
2022-09-02T14:35:18.488Z,51.63
2022-09-02T14:38:04.248Z,51.45
2022-09-02T14:40:49.726Z,51.52
2022-09-02T14:43:43.710Z,51.65
2022-09-02T14:46:46.074Z,51.78
2022-09-02T14:49:39.301Z,51.92
2022-09-02T14:52:33.351Z,51.72
2022-09-02T14:55:42.129Z,51.61
2022-09-02T14:58:28.978Z,51.58
2022-09-02T15:01:14.787Z,51.56
2022-09-02T15:04:02.599Z,51.57
2022-09-02T15:06:49.843Z,51.37
2022-09-02T15:09:35.942Z,51.78
2022-09-02T15:12:33.211Z,51.82
2022-09-02T15:15:19.145Z,51.92
2022-09-02T15:18:05.392Z,51.79
2022-09-02T15:20:55.045Z,51.96
2022-09-02T15:23:41.180Z,52.28
2022-09-02T15:26:28.700Z,52.50
2022-09-02T15:29:14.065Z,52.56
2022-09-02T15:32:00.443Z,52.67
2022-09-02T15:34:46.308Z,52.43
2022-09-02T15:37:35.141Z,52.69
2022-09-02T15:40:20.976Z,52.94
2022-09-02T15:43:06.333Z,52.75
2022-09-02T15:45:51.879Z,52.62
2022-09-02T15:48:37.349Z,52.79
2022-09-02T15:51:24.618Z,52.83
2022-09-02T15:54:11.534Z,53.14
2022-09-02T15:57:02.145Z,53.48
2022-09-02T15:59:48.073Z,53.65
2022-09-02T16:02:33.592Z,53.52
2022-09-02T16:05:18.834Z,53.15
2022-09-02T16:08:04.455Z,53.50
2022-09-02T16:10:50.621Z,53.45
2022-09-02T16:13:37.431Z,53.68
2022-09-02T16:16:22.699Z,53.80
2022-09-02T16:19:09.803Z,53.76
2022-09-02T16:21:55.488Z,54.22
2022-09-02T16:24:41.025Z,54.28
2022-09-02T16:27:45.138Z,54.28
2022-09-02T16:30:31.030Z,54.16
2022-09-02T16:33:16.932Z,54.42
2022-09-02T16:36:03.664Z,54.65
2022-09-02T16:38:49.238Z,55.11
2022-09-02T16:41:39.589Z,55.77
2022-09-02T16:44:26.747Z,56.57
2022-09-02T16:47:13.816Z,57.17
2022-09-02T16:50:00.217Z,57.81
2022-09-02T16:52:47.387Z,58.67
2022-09-02T16:55:33.619Z,60.05
2022-09-02T16:58:24.972Z,60.53
2022-09-02T17:01:12.500Z,61.15
2022-09-02T17:04:03.386Z,61.66
2022-09-02T17:06:52.272Z,61.72
2022-09-02T17:09:38.627Z,61.96
2022-09-02T17:12:24.029Z,62.45
2022-09-02T17:15:10.414Z,62.30
2022-09-02T17:17:57.134Z,62.64
2022-09-02T17:20:43.170Z,62.96
2022-09-02T17:23:28.701Z,62.70
2022-09-02T17:26:15.592Z,62.91
2022-09-02T17:29:06.589Z,63.21
2022-09-02T17:31:52.573Z,63.16
2022-09-02T17:34:38.007Z,63.37
2022-09-02T17:37:23.757Z,63.70
2022-09-02T17:40:32.619Z,64.14
2022-09-02T17:43:18.028Z,63.94
2022-09-02T17:46:08.862Z,63.73
2022-09-02T17:49:15.943Z,64.13
2022-09-02T17:52:07.686Z,64.12
2022-09-02T17:54:55.376Z,64.08
2022-09-02T17:58:15.076Z,64.02
2022-09-02T18:01:16.318Z,64.39
2022-09-02T18:04:41.328Z,64.81
2022-09-02T18:08:02.745Z,65.01
2022-09-02T18:11:04.516Z,65.40
2022-09-02T18:13:57.150Z,65.72
2022-09-02T18:16:48.297Z,65.76
2022-09-02T18:20:06.422Z,65.72
2022-09-02T18:23:30.335Z,66.07
2022-09-02T18:26:42.431Z,66.39
2022-09-02T18:29:40.470Z,67.08
2022-09-02T18:32:30.543Z,67.01
2022-09-02T18:35:44.136Z,67.75
2022-09-02T18:38:52.354Z,67.84
2022-09-02T18:41:45.150Z,67.82
2022-09-02T18:44:59.695Z,67.73
2022-09-02T18:47:50.061Z,67.80
2022-09-02T18:50:51.577Z,67.54
2022-09-02T18:53:45.033Z,67.74
2022-09-02T18:56:35.282Z,67.73
2022-09-02T18:59:30.079Z,67.33
2022-09-02T19:02:39.052Z,67.48
2022-09-02T19:05:26.937Z,67.38
2022-09-02T19:08:30.547Z,67.57
2022-09-02T19:11:17.921Z,67.67
2022-09-02T19:14:18.352Z,67.78
2022-09-02T19:17:04.114Z,67.80
2022-09-02T19:19:49.645Z,68.19
2022-09-02T19:22:39.824Z,68.31
2022-09-02T19:25:29.071Z,68.52
2022-09-02T19:28:18.100Z,68.63
2022-09-02T19:31:04.576Z,68.62
2022-09-02T19:33:53.677Z,69.05
2022-09-02T19:36:42.539Z,68.99
2022-09-02T19:39:30.243Z,69.00
2022-09-02T19:42:20.061Z,69.13
2022-09-02T19:45:14.168Z,69.05
2022-09-02T19:48:09.603Z,68.73
2022-09-02T19:50:55.303Z,68.48
2022-09-02T19:53:43.173Z,68.70
2022-09-02T19:56:29.110Z,68.58
2022-09-02T19:59:14.676Z,68.81
2022-09-02T20:02:00.585Z,68.81
2022-09-02T20:04:45.816Z,68.73
2022-09-02T20:07:31.422Z,69.07
2022-09-02T20:10:20.428Z,69.30
2022-09-02T20:13:15.978Z,69.18
2022-09-02T20:16:02.291Z,69.70
2022-09-02T20:18:50.063Z,69.23
2022-09-02T20:21:42.783Z,69.46
2022-09-02T20:24:32.315Z,69.57
2022-09-02T20:27:30.025Z,70.00
2022-09-02T20:30:18.853Z,70.23
2022-09-02T20:33:12.799Z,70.42
2022-09-02T20:35:58.363Z,70.54
2022-09-02T20:39:11.993Z,70.50
2022-09-02T20:42:35.329Z,70.53
2022-09-02T20:45:38.064Z,70.54
2022-09-02T20:48:39.976Z,70.53
2022-09-02T20:51:44.797Z,70.70
2022-09-02T20:54:52.978Z,70.87
2022-09-02T20:58:15.790Z,70.90
2022-09-02T21:01:08.391Z,70.74
2022-09-02T21:04:14.260Z,71.01
2022-09-02T21:07:11.076Z,70.77
2022-09-02T21:10:19.250Z,70.89
2022-09-02T21:13:17.252Z,71.11
2022-09-02T21:16:11.189Z,71.06
2022-09-02T21:19:03.638Z,71.13
2022-09-02T21:21:54.010Z,71.23
2022-09-02T21:25:09.512Z,71.18
2022-09-02T21:27:55.124Z,71.05
2022-09-02T21:30:45.968Z,71.28
2022-09-02T21:33:35.539Z,71.38
2022-09-02T21:36:28.064Z,71.91
2022-09-02T21:39:16.875Z,71.85
2022-09-02T21:42:14.543Z,71.97
2022-09-02T21:45:10.718Z,72.11
2022-09-02T21:48:15.159Z,72.33
2022-09-02T21:51:08.676Z,72.50
2022-09-02T21:54:13.519Z,72.78
2022-09-02T21:57:12.150Z,72.89
2022-09-02T21:59:57.688Z,72.99
2022-09-02T22:03:13.490Z,73.00
2022-09-02T22:06:16.898Z,73.10
2022-09-02T22:09:27.266Z,72.97
2022-09-02T22:12:14.647Z,73.56
2022-09-02T22:15:21.102Z,73.54
2022-09-02T22:18:28.814Z,73.48
2022-09-02T22:21:25.082Z,73.32
2022-09-02T22:24:11.265Z,73.30
2022-09-02T22:27:11.930Z,73.21
2022-09-02T22:30:09.673Z,73.47
2022-09-02T22:33:16.050Z,72.96
2022-09-02T22:36:20.321Z,73.18
2022-09-02T22:39:07.787Z,73.07
2022-09-02T22:42:03.044Z,72.88
2022-09-02T22:45:20.044Z,72.98
2022-09-02T22:48:51.963Z,73.19
2022-09-02T22:52:05.989Z,73.08
2022-09-02T22:54:52.310Z,73.08
2022-09-02T22:58:00.259Z,73.13
2022-09-02T23:00:53.390Z,73.23
2022-09-02T23:03:47.749Z,73.47
2022-09-02T23:06:33.589Z,73.12
2022-09-02T23:09:19.199Z,73.29
2022-09-02T23:12:23.167Z,73.59
2022-09-02T23:15:22.977Z,73.52
2022-09-02T23:18:29.725Z,73.78
2022-09-02T23:21:32.795Z,73.80
2022-09-02T23:24:21.449Z,74.12
2022-09-02T23:27:16.669Z,74.04
2022-09-02T23:30:02.442Z,74.19
2022-09-02T23:33:13.884Z,74.31
2022-09-02T23:36:34.318Z,74.03
2022-09-02T23:39:38.080Z,74.37
2022-09-02T23:42:25.264Z,74.44
2022-09-02T23:45:19.670Z,74.34
2022-09-02T23:48:23.646Z,73.96
2022-09-02T23:51:16.015Z,74.62
2022-09-02T23:54:18.841Z,74.48
2022-09-02T23:57:31.410Z,74.63
